Time;durP1;ratioP1;P1;durP2;ratioP2;P2;SDS_P1;SDS_P2;PMS_P1;PMS_P2;Temp;Humidity;BMP_temperature;BMP_pressure;BME280_temperature;BME280_humidity;BME280_pressure;Samples;Min_cycle;Max_cycle;Signal;HPM_P1;HPM_P2
2023/09/09 00:02:03;;;;;;;8.90;5.00;;;;;;;15.54;64.56;100738.58;107619;1256;71852;-74
2023/09/09 00:04:31;;;;;;;7.50;5.30;;;;;;;15.49;64.73;100738.48;107678;1260;71917;-72
2023/09/09 00:07:02;;;;;;;7.50;5.40;;;;;;;15.45;64.86;100737.38;108008;1259;60500;-72
2023/09/09 00:09:30;;;;;;;8.10;5.10;;;;;;;15.42;64.99;100740.05;107794;1256;60287;-73
2023/09/09 00:11:58;;;;;;;7.80;4.20;;;;;;;15.41;65.15;100742.23;107653;1256;72894;-73
2023/09/09 00:14:28;;;;;;;9.80;5.00;;;;;;;15.42;65.27;100740.86;107729;1256;72725;-73
2023/09/09 00:16:57;;;;;;;9.10;5.90;;;;;;;15.43;65.38;100744.67;107786;1256;72707;-75
2023/09/09 00:19:25;;;;;;;9.40;5.60;;;;;;;15.36;65.26;100741.57;107706;1256;61720;-74
2023/09/09 00:21:53;;;;;;;10.00;5.80;;;;;;;15.32;65.39;100741.75;107669;1257;60194;-74
2023/09/09 00:24:21;;;;;;;9.60;5.80;;;;;;;15.31;65.49;100739.20;107678;1257;73024;-73
2023/09/09 00:26:49;;;;;;;10.00;5.60;;;;;;;15.27;65.60;100738.05;107701;1256;72378;-74
2023/09/09 00:29:16;;;;;;;9.80;5.80;;;;;;;15.25;65.94;100735.27;107663;1256;72702;-73
2023/09/09 00:31:44;;;;;;;8.90;5.70;;;;;;;15.21;66.21;100730.52;107710;1257;60565;-75
2023/09/09 00:34:11;;;;;;;8.40;5.10;;;;;;;15.22;66.37;100731.16;107693;1261;59289;-73
2023/09/09 00:36:39;;;;;;;8.40;5.00;;;;;;;15.32;66.37;100726.64;107753;1256;72672;-73
2023/09/09 00:39:08;;;;;;;7.20;4.50;;;;;;;15.39;66.46;100722.70;107654;1256;71587;-71
2023/09/09 00:41:35;;;;;;;8.50;5.10;;;;;;;15.48;66.41;100721.86;108761;1259;72786;-73
2023/09/09 00:44:04;;;;;;;8.20;5.30;;;;;;;15.56;66.40;100724.85;107618;1256;61717;-74
2023/09/09 00:46:32;;;;;;;8.00;5.20;;;;;;;15.62;66.40;100726.75;107594;1262;61095;-73
2023/09/09 00:49:03;;;;;;;8.50;5.40;;;;;;;15.59;66.33;100724.20;107649;1256;73981;-73
2023/09/09 00:51:31;;;;;;;9.10;5.90;;;;;;;15.52;66.38;100722.35;107730;1256;73278;-74
2023/09/09 00:53:59;;;;;;;8.80;5.70;;;;;;;15.44;66.60;100719.31;107716;1256;72774;-74
2023/09/09 00:56:26;;;;;;;7.70;5.50;;;;;;;15.37;66.58;100716.26;107752;1256;60465;-75
2023/09/09 00:58:54;;;;;;;8.40;5.50;;;;;;;15.32;66.77;100718.80;107470;1263;60376;-75
2023/09/09 01:01:21;;;;;;;8.50;5.70;;;;;;;15.28;66.95;100716.62;107666;1256;72412;-74
2023/09/09 01:03:53;;;;;;;9.60;5.30;;;;;;;15.23;66.90;100719.48;107716;1256;72764;-73
2023/09/09 01:06:21;;;;;;;8.40;5.10;;;;;;;15.16;67.05;100714.96;107838;1257;71443;-74
2023/09/09 01:08:49;;;;;;;9.20;5.60;;;;;;;15.12;67.04;100711.91;107567;1258;61773;-73
2023/09/09 01:11:16;;;;;;;8.50;5.40;;;;;;;15.12;67.03;100708.86;107630;1256;60286;-74
2023/09/09 01:13:44;;;;;;;9.60;5.50;;;;;;;15.13;67.01;100704.92;107668;1256;73954;-74
2023/09/09 01:16:12;;;;;;;8.70;5.40;;;;;;;15.17;66.93;100701.02;107783;1256;71786;-76
2023/09/09 01:18:40;;;;;;;9.10;5.30;;;;;;;15.19;66.88;100705.73;107366;1264;72721;-72
2023/09/09 01:21:08;;;;;;;9.40;5.00;;;;;;;15.21;66.72;100709.74;107653;1256;60723;-74
2023/09/09 01:23:36;;;;;;;12.60;5.30;;;;;;;15.22;66.77;100709.71;107794;1256;60381;-75
2023/09/09 01:26:04;;;;;;;10.20;5.30;;;;;;;15.22;66.80;100708.01;107780;1256;72579;-74
2023/09/09 01:28:31;;;;;;;8.80;5.20;;;;;;;15.23;67.00;100705.80;107652;1257;72468;-72
2023/09/09 01:31:00;;;;;;;11.10;5.20;;;;;;;15.25;67.04;100712.07;107725;1256;70625;-72
2023/09/09 01:33:27;;;;;;;8.10;4.40;;;;;;;15.27;67.08;100714.59;107730;1257;61745;-71
2023/09/09 01:35:55;;;;;;;10.50;4.80;;;;;;;15.23;67.19;100707.84;107849;1256;60540;-71
2023/09/09 01:38:23;;;;;;;8.20;4.20;;;;;;;15.17;67.28;100708.00;107658;1259;73016;-71
2023/09/09 01:40:51;;;;;;;8.80;4.60;;;;;;;15.15;67.44;100713.02;107657;1257;71607;-71
2023/09/09 01:43:18;;;;;;;8.10;4.50;;;;;;;15.20;67.39;100718.58;107589;1256;72801;-70
2023/09/09 01:45:46;;;;;;;9.20;4.80;;;;;;;15.21;67.23;100720.73;107581;1257;61631;-70
2023/09/09 01:48:14;;;;;;;8.70;4.30;;;;;;;15.26;67.12;100719.91;107375;1256;59476;-71
2023/09/09 01:50:44;;;;;;;10.10;4.30;;;;;;;15.33;67.04;100721.57;107689;1256;73920;-71
2023/09/09 01:53:12;;;;;;;10.30;4.40;;;;;;;15.35;66.98;100720.64;107710;1256;71393;-70
2023/09/09 01:55:39;;;;;;;8.50;4.40;;;;;;;15.30;67.05;100720.86;107764;1256;71129;-71
2023/09/09 01:58:07;;;;;;;7.70;4.30;;;;;;;15.33;66.94;100722.02;107572;1257;61614;-71
2023/09/09 02:00:36;;;;;;;10.20;4.50;;;;;;;15.35;66.87;100717.09;107819;1256;60297;-70
2023/09/09 02:03:04;;;;;;;11.40;4.40;;;;;;;15.31;66.90;100721.59;107623;1256;74895;-71
2023/09/09 02:05:34;;;;;;;10.80;4.50;;;;;;;15.32;66.83;100727.02;107863;1256;73499;-71
2023/09/09 02:08:03;;;;;;;10.00;4.70;;;;;;;15.33;66.61;100724.75;107706;1259;72684;-71
2023/09/09 02:10:30;;;;;;;7.90;4.10;;;;;;;15.33;66.47;100722.38;107561;1256;61670;-71
2023/09/09 02:12:58;;;;;;;7.80;4.40;;;;;;;15.31;66.45;100726.06;107514;1256;60450;-71
2023/09/09 02:15:27;;;;;;;7.50;4.10;;;;;;;15.29;66.31;100724.47;107740;1256;73883;-71
2023/09/09 02:17:54;;;;;;;7.80;4.20;;;;;;;15.28;66.20;100726.16;107550;1257;71409;-71
2023/09/09 02:20:22;;;;;;;8.70;4.20;;;;;;;15.26;66.10;100721.95;107656;1257;71209;-72
2023/09/09 02:22:49;;;;;;;10.30;4.30;;;;;;;15.25;66.00;100724.13;107614;1259;60407;-73
2023/09/09 02:25:17;;;;;;;7.60;4.00;;;;;;;15.23;65.90;100723.55;107747;1256;60052;-72
2023/09/09 02:27:45;;;;;;;9.90;3.70;;;;;;;15.21;65.90;100723.84;107722;1258;73338;-70
2023/09/09 02:30:12;;;;;;;6.70;3.70;;;;;;;15.21;65.86;100723.95;107587;1256;71631;-71
2023/09/09 02:32:43;;;;;;;7.40;3.40;;;;;;;15.20;65.92;100723.16;107576;1259;71896;-71
2023/09/09 02:35:11;;;;;;;7.10;4.00;;;;;;;15.18;66.00;100725.21;107730;1257;62655;-73
2023/09/09 02:37:40;;;;;;;8.30;3.90;;;;;;;15.20;65.88;100730.26;107641;1256;60238;-73
2023/09/09 02:40:09;;;;;;;6.90;3.30;;;;;;;15.20;65.96;100728.27;107679;1257;73990;-73
2023/09/09 02:42:37;;;;;;;6.40;3.50;;;;;;;15.19;66.01;100730.73;107698;1256;73159;-73
2023/09/09 02:45:05;;;;;;;6.80;3.50;;;;;;;15.19;66.10;100732.14;107921;1256;72768;-73
2023/09/09 02:47:33;;;;;;;7.60;3.60;;;;;;;15.19;66.11;100732.67;107673;1257;60527;-73
2023/09/09 02:50:03;;;;;;;8.40;3.80;;;;;;;15.19;66.13;100733.21;107656;1256;60284;-73
2023/09/09 02:52:31;;;;;;;5.40;3.30;;;;;;;15.19;66.26;100735.42;107645;1257;73940;-73
2023/09/09 02:54:59;;;;;;;6.10;3.40;;;;;;;15.19;66.22;100740.73;107526;1256;72497;-72
2023/09/09 02:57:27;;;;;;;5.70;2.90;;;;;;;15.19;66.34;100741.40;107625;1256;71247;-73
2023/09/09 02:59:55;;;;;;;7.60;3.20;;;;;;;15.18;66.27;100745.01;107772;1259;60501;-72
2023/09/09 03:02:22;;;;;;;7.50;3.20;;;;;;;15.19;66.22;100747.27;107739;1256;60290;-73
2023/09/09 03:04:50;;;;;;;6.00;3.30;;;;;;;15.18;66.29;100744.75;107731;1256;72628;-73
2023/09/09 03:07:19;;;;;;;6.50;3.00;;;;;;;15.19;66.37;100750.40;107844;1256;71367;-75
2023/09/09 03:09:47;;;;;;;6.20;3.00;;;;;;;15.19;66.35;100757.92;107729;1257;71028;-70
2023/09/09 03:12:20;;;;;;;7.00;2.70;;;;;;;15.19;66.27;100759.20;107887;1256;61520;-71
2023/09/09 03:14:48;;;;;;;6.10;2.90;;;;;;;15.22;66.26;100761.01;107643;1256;61944;-71
2023/09/09 03:17:17;;;;;;;7.00;2.80;;;;;;;15.26;66.31;100758.02;107622;1256;73062;-71
2023/09/09 03:19:45;;;;;;;5.10;2.70;;;;;;;15.28;66.10;100758.33;107678;1256;71391;-71
2023/09/09 03:22:12;;;;;;;5.40;2.60;;;;;;;15.31;65.99;100757.93;107658;1259;71587;-73
2023/09/09 03:24:40;;;;;;;6.10;2.70;;;;;;;15.32;65.85;100763.62;107714;1256;61738;-72
2023/09/09 03:27:08;;;;;;;7.00;2.60;;;;;;;15.33;65.72;100762.52;107716;1256;60309;-71
2023/09/09 03:29:35;;;;;;;8.20;2.60;;;;;;;15.34;65.60;100762.85;107663;1256;73907;-72
2023/09/09 03:32:03;;;;;;;5.70;2.50;;;;;;;15.36;65.43;100766.59;107728;1256;70150;-71
2023/09/09 03:34:31;;;;;;;7.40;3.00;;;;;;;15.37;65.33;100765.30;107423;1256;70419;-71
2023/09/09 03:36:58;;;;;;;7.20;2.90;;;;;;;15.38;65.24;100770.60;107885;1256;60527;-71
2023/09/09 03:39:26;;;;;;;6.80;3.00;;;;;;;15.39;65.27;100772.96;107820;1256;60338;-71
2023/09/09 03:41:53;;;;;;;6.70;3.10;;;;;;;15.39;65.13;100772.96;107593;1263;73838;-72
2023/09/09 03:44:21;;;;;;;8.00;3.50;;;;;;;15.39;65.10;100775.33;107714;1263;75112;-71
2023/09/09 03:46:49;;;;;;;12.00;6.10;;;;;;;15.38;65.08;100786.87;107676;1256;72530;-72
2023/09/09 03:49:17;;;;;;;19.00;9.70;;;;;;;15.36;64.88;100791.78;107592;1256;61625;-71
2023/09/09 03:51:45;;;;;;;24.30;14.20;;;;;;;15.36;64.86;100786.83;107664;1256;60288;-71
2023/09/09 03:54:12;;;;;;;25.00;14.10;;;;;;;15.37;64.83;100792.00;107621;1256;72355;-71
2023/09/09 03:56:40;;;;;;;32.60;17.50;;;;;;;15.39;64.59;100794.08;107769;1259;71976;-71
2023/09/09 03:59:08;;;;;;;34.10;16.70;;;;;;;15.42;64.55;100788.23;107749;1259;70625;-72
2023/09/09 04:01:36;;;;;;;33.20;17.10;;;;;;;15.43;64.41;100789.20;107802;1256;61646;-72
2023/09/09 04:04:04;;;;;;;47.40;23.90;;;;;;;15.46;64.11;100791.27;107607;1256;60448;-72
2023/09/09 04:06:32;;;;;;;56.60;28.00;;;;;;;15.49;64.06;100792.37;107678;1256;73927;-72
2023/09/09 04:09:00;;;;;;;54.10;27.40;;;;;;;15.50;63.93;100790.48;107717;1257;71972;-71
2023/09/09 04:11:28;;;;;;;54.90;26.80;;;;;;;15.53;63.86;100787.33;107711;1259;72632;-72
2023/09/09 04:13:56;;;;;;;48.20;24.40;;;;;;;15.55;63.81;100787.08;107588;1256;60382;-72
2023/09/09 04:16:23;;;;;;;36.20;18.90;;;;;;;15.59;63.65;100786.67;107763;1256;60307;-72
2023/09/09 04:18:51;;;;;;;26.70;13.60;;;;;;;15.64;63.56;100787.98;107655;1256;72925;-71
2023/09/09 04:21:19;;;;;;;22.30;11.50;;;;;;;15.70;63.45;100789.17;107754;1256;71928;-72
2023/09/09 04:23:47;;;;;;;18.30;9.00;;;;;;;15.77;63.33;100792.22;107689;1258;71850;-70
2023/09/09 04:26:16;;;;;;;13.20;6.90;;;;;;;15.81;63.12;100804.20;107645;1259;60239;-72
2023/09/09 04:28:45;;;;;;;12.40;5.70;;;;;;;15.82;62.78;100805.30;107722;1256;60293;-71
2023/09/09 04:31:13;;;;;;;12.60;6.40;;;;;;;15.83;62.47;100804.23;107622;1256;72723;-73
2023/09/09 04:33:42;;;;;;;12.90;6.30;;;;;;;15.85;62.21;100805.45;107804;1257;72547;-71
2023/09/09 04:36:10;;;;;;;10.90;5.80;;;;;;;15.89;61.97;100806.64;107816;1259;72879;-70
2023/09/09 11:45:27;;;;;;;4.00;1.00;;;;;;;23.30;30.49;101028.41;107676;1263;71999;-69
2023/09/09 11:47:54;;;;;;;3.10;1.10;;;;;;;23.36;30.16;101027.21;107521;1260;73052;-71
2023/09/09 11:50:22;;;;;;;2.60;1.10;;;;;;;23.28;30.76;101024.96;107707;1259;60534;-72
2023/09/09 11:52:50;;;;;;;3.00;1.30;;;;;;;23.24;30.85;101028.79;107691;1257;59991;-71
2023/09/09 11:55:17;;;;;;;2.10;1.00;;;;;;;23.27;30.81;101025.33;107725;1257;73920;-71
2023/09/09 11:57:56;;;;;;;3.10;1.30;;;;;;;23.28;30.12;101024.83;107683;1263;71131;-71
2023/09/09 12:00:24;;;;;;;2.70;0.90;;;;;;;23.24;30.39;101025.13;107739;1258;73310;-72
2023/09/09 12:02:51;;;;;;;2.50;1.10;;;;;;;23.25;30.56;101023.41;107690;1261;60353;-70
2023/09/09 12:05:19;;;;;;;4.00;1.10;;;;;;;23.31;29.87;101021.19;107610;1257;60420;-72
2023/09/09 12:07:47;;;;;;;2.00;1.00;;;;;;;23.27;29.28;101023.72;107669;1257;72604;-71
2023/09/09 12:10:14;;;;;;;3.50;1.10;;;;;;;23.26;29.44;101023.89;107723;1256;72511;-72
2023/09/09 12:12:43;;;;;;;3.90;1.00;;;;;;;23.28;30.36;101021.24;107583;1261;71776;-71
2023/09/09 12:15:11;;;;;;;1.60;0.80;;;;;;;23.34;29.73;101021.27;107687;1257;60454;-72
2023/09/09 12:17:39;;;;;;;2.40;1.10;;;;;;;23.39;30.22;101022.61;107555;1257;61394;-71
2023/09/09 12:20:09;;;;;;;3.60;1.30;;;;;;;23.46;29.80;101025.35;107721;1257;72398;-70
2023/09/09 12:22:52;;;;;;;9.90;7.90;;;;;;;23.45;29.73;101023.69;107680;1257;72900;-72
2023/09/09 12:25:30;;;;;;;6.60;3.50;;;;;;;23.49;30.13;101025.77;107681;1257;73837;-72
2023/09/09 12:27:57;;;;;;;6.30;3.40;;;;;;;23.56;29.07;101021.60;107648;1263;60515;-70
2023/09/09 12:30:31;;;;;;;2.40;1.20;;;;;;;23.55;29.39;101026.06;107827;1257;60323;-71
2023/09/09 12:33:12;;;;;;;3.20;1.80;;;;;;;23.53;29.42;101027.12;107605;1257;74796;-72
2023/09/09 12:35:50;;;;;;;2.80;1.30;;;;;;;23.54;29.73;101026.43;107980;1257;72827;-71
2023/09/09 12:38:19;;;;;;;3.90;1.70;;;;;;;23.57;29.38;101018.59;107692;1257;72815;-72
2023/09/09 12:41:04;;;;;;;5.70;2.30;;;;;;;23.55;29.08;101025.43;107730;1257;60376;-71
2023/09/09 12:43:32;;;;;;;2.50;1.10;;;;;;;23.56;28.99;101029.40;107604;1257;60286;-72
2023/09/09 12:46:07;;;;;;;3.50;1.10;;;;;;;23.59;29.48;101036.17;107466;1262;73891;-71
2023/09/09 12:48:57;;;;;;;2.40;1.10;;;;;;;23.61;29.24;101028.27;107977;1258;73144;-72
2023/09/09 12:51:29;;;;;;;2.20;1.00;;;;;;;23.61;29.02;101028.79;107657;1257;71929;-69
2023/09/09 12:53:58;;;;;;;2.80;1.20;;;;;;;23.60;29.59;101021.36;107493;1257;60274;-70
2023/09/09 12:56:25;;;;;;;2.30;0.90;;;;;;;23.64;28.72;101021.73;107783;1257;60432;-69
2023/09/09 12:58:53;;;;;;;3.40;1.20;;;;;;;23.69;28.82;101021.14;107699;1260;73861;-69
2023/09/09 13:01:21;;;;;;;2.40;1.20;;;;;;;23.75;29.38;101021.13;107723;1257;71912;-69
2023/09/09 13:03:48;;;;;;;2.30;0.80;;;;;;;23.76;29.35;101024.14;107493;1257;71816;-70
2023/09/09 13:06:16;;;;;;;4.00;1.10;;;;;;;23.77;29.79;101023.48;107667;1257;60623;-69
2023/09/09 13:08:44;;;;;;;3.10;1.10;;;;;;;23.85;29.19;101028.73;107691;1257;59625;-69
2023/09/09 13:11:11;;;;;;;2.40;0.80;;;;;;;23.89;28.19;101025.71;107802;1262;74210;-68
2023/09/09 13:13:39;;;;;;;3.10;1.20;;;;;;;23.88;27.97;101022.23;107617;1257;72044;-68
2023/09/09 13:16:08;;;;;;;3.00;1.20;;;;;;;23.90;28.04;101021.05;107596;1257;71451;-69
2023/09/09 13:18:35;;;;;;;2.20;1.00;;;;;;;23.88;28.04;101021.20;107657;1257;60383;-68
2023/09/09 13:21:03;;;;;;;1.60;0.80;;;;;;;23.83;27.54;101024.64;107691;1257;60261;-66
2023/09/09 13:23:31;;;;;;;2.60;1.10;;;;;;;23.84;28.19;101024.77;107640;1257;73848;-68
2023/09/09 13:25:59;;;;;;;2.30;1.00;;;;;;;23.93;28.38;101027.02;107698;1257;72660;-67
2023/09/09 13:28:26;;;;;;;2.90;1.20;;;;;;;23.98;28.03;101030.08;107720;1257;72728;-68
2023/09/09 13:30:54;;;;;;;1.70;0.80;;;;;;;23.96;28.10;101031.48;107608;1257;60489;-70
2023/09/09 13:33:22;;;;;;;2.20;0.90;;;;;;;23.93;28.45;101028.12;107694;1257;61116;-70
2023/09/09 13:35:50;;;;;;;1.40;0.90;;;;;;;23.96;28.47;101033.02;107663;1258;74746;-69
2023/09/09 13:38:17;;;;;;;2.70;1.10;;;;;;;23.99;28.27;101029.50;107703;1257;72553;-69
2023/09/09 13:40:45;;;;;;;3.70;0.90;;;;;;;24.00;28.38;101029.65;107786;1261;71194;-67
2023/09/09 13:43:54;;;;;;;1.50;0.90;;;;;;;23.93;28.37;101028.09;107719;1258;61228;-68
2023/09/09 13:46:21;;;;;;;3.80;1.10;;;;;;;23.87;28.37;101035.68;107662;1260;61153;-70
2023/09/09 13:48:49;;;;;;;1.90;0.80;;;;;;;23.85;28.42;101033.84;107653;1258;74753;-69
2023/09/09 13:51:17;;;;;;;3.10;1.10;;;;;;;23.81;28.12;101032.40;107701;1257;71253;-69
2023/09/09 13:53:44;;;;;;;3.00;1.10;;;;;;;23.67;28.10;101037.05;107595;1263;73094;-69
2023/09/09 13:56:13;;;;;;;3.10;1.20;;;;;;;23.60;28.47;101043.65;107518;1257;60175;-67
2023/09/09 13:58:40;;;;;;;3.10;1.30;;;;;;;23.53;28.74;101042.90;107656;1257;61035;-69
2023/09/09 14:01:08;;;;;;;1.90;0.90;;;;;;;23.57;28.67;101039.55;107720;1258;74716;-71
2023/09/09 14:03:36;;;;;;;3.50;0.90;;;;;;;23.58;28.89;101038.59;107742;1257;72753;-69
2023/09/09 14:06:03;;;;;;;2.80;1.00;;;;;;;23.60;28.88;101045.98;107730;1261;71701;-69
2023/09/09 14:08:31;;;;;;;1.70;0.90;;;;;;;23.65;28.30;101042.48;107705;1257;61104;-70
2023/09/09 14:10:58;;;;;;;2.60;1.20;;;;;;;23.69;27.95;101043.34;107649;1256;61257;-70
2023/09/09 14:13:26;;;;;;;3.40;0.90;;;;;;;23.73;27.72;101046.46;107687;1256;75531;-70
2023/09/09 14:15:56;;;;;;;2.10;1.00;;;;;;;23.69;27.16;101053.87;107725;1257;72712;-70
2023/09/09 14:18:24;;;;;;;3.10;1.20;;;;;;;23.66;27.79;101054.16;107688;1257;72674;-70
2023/09/09 14:20:52;;;;;;;3.60;1.20;;;;;;;23.71;27.31;101052.48;107535;1257;60140;-69
2023/09/09 14:23:20;;;;;;;2.60;1.40;;;;;;;23.75;27.57;101054.09;107674;1257;61094;-70
2023/09/09 14:25:48;;;;;;;5.20;1.60;;;;;;;23.82;27.55;101055.23;107637;1256;74634;-69
2023/09/09 14:28:15;;;;;;;1.80;1.10;;;;;;;23.93;27.96;101059.35;107646;1257;71898;-68
2023/09/09 14:30:46;;;;;;;2.30;1.00;;;;;;;24.07;27.69;101060.71;107591;1257;71658;-69
2023/09/09 14:33:14;;;;;;;2.50;1.20;;;;;;;24.28;27.35;101063.40;107602;1257;61331;-68
2023/09/09 14:35:42;;;;;;;3.10;1.10;;;;;;;24.48;27.25;101062.62;107460;1260;61153;-70
2023/09/09 14:38:10;;;;;;;2.40;1.20;;;;;;;24.90;26.50;101062.89;107429;1257;74605;-69
2023/09/09 14:40:38;;;;;;;3.40;1.00;;;;;;;25.33;25.91;101060.90;107698;1257;72779;-69
2023/09/09 14:43:06;;;;;;;1.90;0.90;;;;;;;25.87;25.76;101065.37;107501;1258;71694;-69
2023/09/09 14:45:33;;;;;;;2.10;1.00;;;;;;;26.41;24.67;101064.64;107573;1256;60101;-70
2023/09/09 14:48:01;;;;;;;3.40;1.20;;;;;;;26.85;24.13;101069.83;107725;1257;60010;-69
2023/09/09 14:50:29;;;;;;;2.60;1.10;;;;;;;27.10;23.66;101070.98;107596;1262;74691;-70
2023/09/09 14:52:56;;;;;;;2.40;1.00;;;;;;;27.36;23.56;101069.61;107464;1257;71617;-69
2023/09/09 14:55:24;;;;;;;4.20;1.20;;;;;;;27.77;23.49;101070.40;107549;1261;71292;-69
2023/09/09 14:57:51;;;;;;;3.00;1.20;;;;;;;28.08;22.91;101076.43;107401;1256;60975;-69
2023/09/09 15:00:19;;;;;;;2.80;1.60;;;;;;;28.18;22.60;101075.59;107617;1257;61212;-69
2023/09/09 15:02:48;;;;;;;4.00;1.80;;;;;;;28.33;22.74;101075.38;107639;1256;73376;-70
2023/09/09 15:05:16;;;;;;;2.80;1.20;;;;;;;28.37;22.44;101076.65;107625;1257;71510;-69
2023/09/09 15:07:43;;;;;;;4.50;1.40;;;;;;;28.25;22.59;101081.70;107588;1257;73188;-70
2023/09/09 15:10:11;;;;;;;5.00;2.50;;;;;;;28.18;22.59;101079.44;107668;1257;60986;-70
2023/09/09 15:12:38;;;;;;;9.50;6.20;;;;;;;28.15;22.77;101083.31;107622;1262;61176;-70
2023/09/09 15:15:07;;;;;;;9.20;5.60;;;;;;;28.18;22.41;101085.79;107716;1257;73612;-70
2023/09/09 17:25:41;;;;;;;6.00;1.80;;;;;;;17.08;43.88;101209.11;107785;1256;61074;-70
2023/09/09 19:20:51;;;;;;;5.60;3.70;;;;;;;13.79;55.09;101308.30;107638;1257;71939;-72
2023/09/09 19:23:19;;;;;;;8.30;3.60;;;;;;;13.77;55.29;101306.20;107573;1257;73627;-71
2023/09/09 19:25:47;;;;;;;6.70;4.10;;;;;;;13.76;55.46;101304.95;107466;1257;61107;-70
2023/09/09 19:28:15;;;;;;;9.00;4.20;;;;;;;13.74;55.79;101302.36;107447;1256;61115;-70
2023/09/09 19:30:43;;;;;;;7.30;4.00;;;;;;;13.72;55.86;101305.10;107607;1262;74697;-71
2023/09/09 19:33:11;;;;;;;7.80;4.40;;;;;;;13.66;56.05;101302.64;107636;1256;72751;-69
2023/09/09 19:35:38;;;;;;;8.30;4.30;;;;;;;13.57;56.33;101307.37;107511;1256;73710;-69
2023/09/09 19:38:06;;;;;;;7.10;4.10;;;;;;;13.55;56.43;101305.62;107520;1256;61347;-69
2023/09/09 19:40:36;;;;;;;7.40;4.20;;;;;;;13.54;56.58;101311.63;107473;1259;61098;-73
2023/09/09 19:43:04;;;;;;;7.70;4.50;;;;;;;13.52;56.75;101312.05;107258;1256;251147;-71
2023/09/09 19:45:32;;;;;;;9.30;5.00;;;;;;;13.50;56.80;101313.92;107602;1257;72794;-70
2023/09/09 19:47:59;;;;;;;10.50;4.90;;;;;;;13.49;56.88;101314.16;107445;1261;72678;-70
2023/09/09 19:50:31;;;;;;;7.80;5.00;;;;;;;13.51;56.86;101315.33;107486;1256;61722;-70
2023/09/09 19:52:59;;;;;;;11.40;4.60;;;;;;;13.58;56.78;101316.98;107460;1256;61153;-70
2023/09/09 19:55:26;;;;;;;9.30;4.80;;;;;;;13.57;56.85;101319.50;107474;1256;73562;-69
2023/09/09 19:57:54;;;;;;;7.50;4.50;;;;;;;13.51;56.85;101320.67;107469;1256;72729;-70
2023/09/09 20:00:22;;;;;;;9.60;5.10;;;;;;;13.51;56.84;101320.95;107551;1256;72637;-69
2023/09/09 20:02:50;;;;;;;11.20;5.00;;;;;;;13.51;56.67;101324.49;107537;1256;61235;-69
2023/09/09 20:05:18;;;;;;;7.10;4.60;;;;;;;13.51;56.49;101322.24;107564;1256;61347;-68
2023/09/09 20:07:45;;;;;;;10.20;5.20;;;;;;;13.50;56.37;101324.71;107533;1257;74661;-68
2023/09/09 20:10:13;;;;;;;9.00;5.50;;;;;;;13.47;56.48;101326.04;107485;1256;72768;-71
2023/09/09 20:12:41;;;;;;;9.90;6.40;;;;;;;13.44;56.50;101327.08;107484;1256;73160;-70
2023/09/09 20:15:09;;;;;;;11.20;6.10;;;;;;;13.42;56.72;101325.23;107646;1256;61231;-70
2023/09/09 20:17:37;;;;;;;12.90;6.00;;;;;;;13.39;56.97;101326.39;107580;1256;61126;-70
2023/09/09 20:20:13;;;;;;;9.40;5.80;;;;;;;13.37;57.06;101327.67;107779;1257;74758;-70
2023/09/09 20:22:42;;;;;;;12.10;6.20;;;;;;;13.37;57.28;101328.16;107574;1256;72096;-70
2023/09/09 20:25:09;;;;;;;10.10;5.90;;;;;;;13.34;57.08;101329.04;107575;1256;71310;-69
2023/09/09 20:27:38;;;;;;;10.50;5.80;;;;;;;13.33;56.89;101328.34;107426;1256;61309;-69
2023/09/09 20:30:10;;;;;;;8.90;5.90;;;;;;;13.34;56.75;101329.25;107569;1256;61158;-69
2023/09/09 20:32:38;;;;;;;10.20;6.40;;;;;;;13.39;56.53;101331.71;107597;1256;73463;-69
2023/09/09 20:35:07;;;;;;;12.40;6.60;;;;;;;13.38;56.40;101330.73;107519;1256;70498;-70
2023/09/09 20:37:56;;;;;;;10.10;5.90;;;;;;;13.36;56.56;101328.63;107631;1256;71721;-69
2023/09/09 20:40:25;;;;;;;13.50;6.70;;;;;;;13.33;56.97;101331.98;107556;1255;62238;-69
2023/09/09 20:42:54;;;;;;;11.20;6.50;;;;;;;13.29;57.20;101330.09;108276;1256;61097;-69
2023/09/09 20:45:23;;;;;;;10.80;6.30;;;;;;;13.27;57.34;101333.82;107605;1256;76714;-69
2023/09/09 20:47:51;;;;;;;10.30;6.60;;;;;;;13.25;57.54;101337.89;107606;1256;72757;-69
2023/09/09 20:50:20;;;;;;;9.60;6.20;;;;;;;13.23;57.50;101334.73;107592;1257;70751;-69
2023/09/09 20:52:49;;;;;;;11.70;6.30;;;;;;;13.23;57.42;101336.77;107626;1256;61243;-66
2023/09/09 20:55:17;;;;;;;10.00;5.80;;;;;;;13.21;57.31;101335.45;107613;1256;60977;-69
2023/09/09 20:57:45;;;;;;;10.20;6.30;;;;;;;13.19;57.56;101334.25;107591;1256;73843;-69
2023/09/09 21:00:15;;;;;;;10.40;6.30;;;;;;;13.17;57.68;101335.58;107628;1261;70446;-69
2023/09/09 21:02:45;;;;;;;11.90;6.60;;;;;;;13.14;57.61;101340.81;107588;1256;72563;-69
2023/09/09 21:05:16;;;;;;;11.80;6.30;;;;;;;13.12;57.51;101341.73;107512;1256;61289;-68
2023/09/09 21:07:43;;;;;;;12.70;6.80;;;;;;;13.10;57.33;101341.20;107707;1255;61339;-68
2023/09/09 21:10:11;;;;;;;10.90;6.30;;;;;;;13.09;57.44;101342.15;107798;1257;74629;-68
2023/09/09 21:12:41;;;;;;;10.30;6.70;;;;;;;13.09;57.67;101341.39;107681;1256;71734;-67
2023/09/09 21:15:09;;;;;;;9.80;6.50;;;;;;;13.06;58.07;101336.94;108102;1257;71388;-68
2023/09/09 21:18:51;;;;;;;11.00;6.20;;;;;;;13.05;58.15;101342.86;107988;1256;62237;-69
2023/09/09 21:21:18;;;;;;;9.20;6.10;;;;;;;13.10;57.83;101340.77;107633;1256;61117;-67
2023/09/09 21:23:46;;;;;;;9.60;5.90;;;;;;;13.14;57.58;101342.15;107563;1256;74690;-67
2023/09/09 21:26:18;;;;;;;12.00;7.00;;;;;;;13.13;57.51;101343.69;107680;1256;71697;-67
2023/09/09 21:28:47;;;;;;;10.20;6.30;;;;;;;13.12;57.66;101344.06;107712;1256;71379;-67
2023/09/09 21:31:15;;;;;;;9.10;6.10;;;;;;;13.10;57.88;101343.35;107619;1256;61540;-68
2023/09/09 21:33:43;;;;;;;10.00;6.10;;;;;;;13.07;58.04;101345.89;107635;1256;61990;-67
2023/09/09 21:36:10;;;;;;;9.40;6.40;;;;;;;13.06;58.18;101344.91;107841;1256;73428;-67
2023/09/09 21:38:40;;;;;;;10.90;6.40;;;;;;;13.02;58.34;101347.48;107564;1256;72712;-68
2023/09/09 21:41:08;;;;;;;9.60;6.20;;;;;;;13.00;58.63;101349.43;107920;1256;71412;-67
2023/09/09 21:43:36;;;;;;;9.70;6.50;;;;;;;12.98;58.80;101351.02;107668;1256;61178;-68
2023/09/09 21:46:04;;;;;;;10.30;6.00;;;;;;;12.96;58.99;101348.95;107612;1256;61050;-67
2023/09/09 21:48:32;;;;;;;10.80;5.50;;;;;;;12.94;59.03;101353.48;107698;1257;74726;-67
2023/09/09 21:50:59;;;;;;;9.90;6.10;;;;;;;12.93;58.83;101354.91;107693;1257;71462;-67
2023/09/09 21:53:27;;;;;;;10.80;6.40;;;;;;;12.92;58.59;101358.06;107599;1256;72691;-67
2023/09/09 21:55:55;;;;;;;9.50;6.10;;;;;;;12.91;58.46;101352.55;107638;1256;61057;-67
2023/09/09 21:58:23;;;;;;;11.00;6.10;;;;;;;12.90;58.47;101355.70;107666;1255;61181;-67
2023/09/09 22:00:51;;;;;;;9.60;5.80;;;;;;;12.84;58.78;101358.16;107716;1256;74720;-67
2023/09/09 22:03:19;;;;;;;9.70;5.70;;;;;;;12.83;58.77;101362.02;108065;1256;72611;-67
2023/09/09 22:05:47;;;;;;;10.30;5.70;;;;;;;12.71;58.94;101363.29;107677;1256;71194;-67
2023/09/09 22:08:14;;;;;;;8.90;5.70;;;;;;;12.65;58.98;101363.00;107607;1256;61816;-68
2023/09/09 22:10:44;;;;;;;11.10;6.30;;;;;;;12.61;58.97;101361.98;107755;1255;61229;-68
2023/09/09 22:13:12;;;;;;;8.60;5.50;;;;;;;12.58;58.97;101358.14;107603;1256;74653;-68
2023/09/09 22:15:40;;;;;;;14.40;7.50;;;;;;;12.58;58.92;101358.63;107756;1256;72720;-68
2023/09/09 22:18:08;;;;;;;14.30;7.40;;;;;;;12.55;58.93;101355.96;107697;1256;72921;-68
2023/09/09 22:20:40;;;;;;;13.90;8.20;;;;;;;12.53;59.12;101354.01;107722;1256;61100;-68
2023/09/09 22:23:08;;;;;;;12.80;7.00;;;;;;;12.49;59.23;101357.50;107759;1256;60017;-67
2023/09/09 22:25:36;;;;;;;10.60;6.60;;;;;;;12.45;59.26;101357.88;107647;1256;73684;-67
2023/09/09 22:28:06;;;;;;;9.20;5.90;;;;;;;12.38;59.56;101362.52;107665;1256;71552;-66
2023/09/09 22:30:33;;;;;;;10.60;5.90;;;;;;;12.29;59.84;101358.59;107649;1255;71299;-67